sensor_id;sensor_type;location;lat;lon;timestamp;temperature;humidity
22734;DHT22;11534;51.994;5.692;2023-06-26T00:01:15;24.20;99.90
22734;DHT22;11534;51.994;5.692;2023-06-26T00:03:41;24.20;99.90
22734;DHT22;11534;51.994;5.692;2023-06-26T00:06:06;24.20;99.90
22734;DHT22;11534;51.994;5.692;2023-06-26T00:08:32;24.20;99.90
22734;DHT22;11534;51.994;5.692;2023-06-26T00:10:57;24.20;99.90
22734;DHT22;11534;51.994;5.692;2023-06-26T00:13:24;24.20;99.90
22734;DHT22;11534;51.994;5.692;2023-06-26T00:15:51;24.20;99.90
22734;DHT22;11534;51.994;5.692;2023-06-26T00:18:17;24.20;99.90
22734;DHT22;11534;51.994;5.692;2023-06-26T00:20:42;24.20;99.90
22734;DHT22;11534;51.994;5.692;2023-06-26T00:23:08;24.10;99.90
22734;DHT22;11534;51.994;5.692;2023-06-26T00:25:34;24.00;99.90
22734;DHT22;11534;51.994;5.692;2023-06-26T00:28:00;24.00;99.90
22734;DHT22;11534;51.994;5.692;2023-06-26T00:30:25;24.00;99.90
22734;DHT22;11534;51.994;5.692;2023-06-26T00:32:51;24.00;99.90
22734;DHT22;11534;51.994;5.692;2023-06-26T00:35:17;23.90;99.90
22734;DHT22;11534;51.994;5.692;2023-06-26T00:37:42;23.90;99.90
22734;DHT22;11534;51.994;5.692;2023-06-26T00:40:09;23.80;99.90
22734;DHT22;11534;51.994;5.692;2023-06-26T00:42:34;23.80;99.90
22734;DHT22;11534;51.994;5.692;2023-06-26T00:45:02;23.80;99.90
22734;DHT22;11534;51.994;5.692;2023-06-26T00:47:29;23.80;99.90
22734;DHT22;11534;51.994;5.692;2023-06-26T00:49:55;23.80;99.90
22734;DHT22;11534;51.994;5.692;2023-06-26T00:52:21;23.80;99.90
22734;DHT22;11534;51.994;5.692;2023-06-26T00:54:48;23.70;99.90
22734;DHT22;11534;51.994;5.692;2023-06-26T00:57:14;23.80;99.90
22734;DHT22;11534;51.994;5.692;2023-06-26T00:59:40;23.70;99.90
22734;DHT22;11534;51.994;5.692;2023-06-26T01:02:05;23.70;99.90
22734;DHT22;11534;51.994;5.692;2023-06-26T01:04:32;23.70;99.90
22734;DHT22;11534;51.994;5.692;2023-06-26T01:07:01;23.70;99.90
22734;DHT22;11534;51.994;5.692;2023-06-26T01:09:28;23.60;99.90
22734;DHT22;11534;51.994;5.692;2023-06-26T01:11:54;23.60;99.90
22734;DHT22;11534;51.994;5.692;2023-06-26T01:14:20;23.60;99.90
22734;DHT22;11534;51.994;5.692;2023-06-26T01:16:46;23.50;99.90
22734;DHT22;11534;51.994;5.692;2023-06-26T01:19:28;23.60;99.90
22734;DHT22;11534;51.994;5.692;2023-06-26T01:22:12;23.60;99.90
22734;DHT22;11534;51.994;5.692;2023-06-26T01:24:48;23.50;99.90
22734;DHT22;11534;51.994;5.692;2023-06-26T01:27:19;23.50;99.90
22734;DHT22;11534;51.994;5.692;2023-06-26T01:29:47;23.40;99.90
22734;DHT22;11534;51.994;5.692;2023-06-26T01:32:14;23.40;99.90
22734;DHT22;11534;51.994;5.692;2023-06-26T01:34:42;23.40;99.90
22734;DHT22;11534;51.994;5.692;2023-06-26T01:37:09;23.40;99.90
22734;DHT22;11534;51.994;5.692;2023-06-26T01:39:34;23.40;99.90
22734;DHT22;11534;51.994;5.692;2023-06-26T01:42:00;23.40;99.90
22734;DHT22;11534;51.994;5.692;2023-06-26T01:44:29;23.40;99.90
22734;DHT22;11534;51.994;5.692;2023-06-26T01:49:31;23.50;99.90
22734;DHT22;11534;51.994;5.692;2023-06-26T01:52:07;23.50;99.90
22734;DHT22;11534;51.994;5.692;2023-06-26T01:54:39;23.40;99.90
22734;DHT22;11534;51.994;5.692;2023-06-26T01:57:08;23.50;99.90
22734;DHT22;11534;51.994;5.692;2023-06-26T01:59:35;23.40;99.90
22734;DHT22;11534;51.994;5.692;2023-06-26T02:02:02;23.40;99.90
22734;DHT22;11534;51.994;5.692;2023-06-26T02:04:31;23.30;99.90
22734;DHT22;11534;51.994;5.692;2023-06-26T02:06:57;23.30;99.90
22734;DHT22;11534;51.994;5.692;2023-06-26T02:09:23;23.20;99.90
22734;DHT22;11534;51.994;5.692;2023-06-26T02:11:48;23.20;99.90
22734;DHT22;11534;51.994;5.692;2023-06-26T02:14:14;23.10;99.90
22734;DHT22;11534;51.994;5.692;2023-06-26T02:16:39;23.10;99.90
22734;DHT22;11534;51.994;5.692;2023-06-26T02:19:05;23.10;99.90
22734;DHT22;11534;51.994;5.692;2023-06-26T02:21:30;23.10;99.90
22734;DHT22;11534;51.994;5.692;2023-06-26T02:23:56;23.00;99.90
22734;DHT22;11534;51.994;5.692;2023-06-26T02:26:22;23.00;99.90
22734;DHT22;11534;51.994;5.692;2023-06-26T02:28:47;22.90;99.90
22734;DHT22;11534;51.994;5.692;2023-06-26T02:31:13;22.90;99.90
22734;DHT22;11534;51.994;5.692;2023-06-26T02:33:39;22.80;99.90
22734;DHT22;11534;51.994;5.692;2023-06-26T02:36:04;22.90;99.90
22734;DHT22;11534;51.994;5.692;2023-06-26T02:38:30;22.80;99.90
22734;DHT22;11534;51.994;5.692;2023-06-26T02:40:56;22.80;99.90
22734;DHT22;11534;51.994;5.692;2023-06-26T02:43:21;22.80;99.90
22734;DHT22;11534;51.994;5.692;2023-06-26T02:45:47;22.70;99.90
22734;DHT22;11534;51.994;5.692;2023-06-26T02:48:12;22.70;99.90
22734;DHT22;11534;51.994;5.692;2023-06-26T02:50:38;22.70;99.90
22734;DHT22;11534;51.994;5.692;2023-06-26T02:53:04;22.70;99.90
22734;DHT22;11534;51.994;5.692;2023-06-26T02:55:29;22.60;99.90
22734;DHT22;11534;51.994;5.692;2023-06-26T02:57:55;22.60;99.90
22734;DHT22;11534;51.994;5.692;2023-06-26T03:00:20;22.50;99.90
22734;DHT22;11534;51.994;5.692;2023-06-26T03:02:46;22.50;99.90
22734;DHT22;11534;51.994;5.692;2023-06-26T03:05:12;22.50;99.90
22734;DHT22;11534;51.994;5.692;2023-06-26T03:07:38;22.50;99.90
22734;DHT22;11534;51.994;5.692;2023-06-26T03:10:04;22.40;99.90
22734;DHT22;11534;51.994;5.692;2023-06-26T03:12:30;22.30;99.90
22734;DHT22;11534;51.994;5.692;2023-06-26T03:14:56;22.30;99.90
22734;DHT22;11534;51.994;5.692;2023-06-26T03:17:22;22.20;99.90
22734;DHT22;11534;51.994;5.692;2023-06-26T03:19:47;22.30;99.90
22734;DHT22;11534;51.994;5.692;2023-06-26T03:22:13;22.30;99.90
22734;DHT22;11534;51.994;5.692;2023-06-26T03:24:39;22.20;99.90
22734;DHT22;11534;51.994;5.692;2023-06-26T03:27:05;22.20;99.90
22734;DHT22;11534;51.994;5.692;2023-06-26T03:29:30;22.10;99.90
22734;DHT22;11534;51.994;5.692;2023-06-26T03:31:56;22.10;99.90
22734;DHT22;11534;51.994;5.692;2023-06-26T03:34:22;22.10;99.90
22734;DHT22;11534;51.994;5.692;2023-06-26T03:36:47;22.10;99.90
22734;DHT22;11534;51.994;5.692;2023-06-26T03:39:13;22.00;99.90
22734;DHT22;11534;51.994;5.692;2023-06-26T03:41:39;22.00;99.90
22734;DHT22;11534;51.994;5.692;2023-06-26T03:44:04;22.00;99.90
22734;DHT22;11534;51.994;5.692;2023-06-26T03:46:30;22.00;99.90
22734;DHT22;11534;51.994;5.692;2023-06-26T03:48:56;21.90;99.90
22734;DHT22;11534;51.994;5.692;2023-06-26T03:51:21;22.00;99.90
22734;DHT22;11534;51.994;5.692;2023-06-26T03:53:47;22.00;99.90
22734;DHT22;11534;51.994;5.692;2023-06-26T03:56:12;22.00;99.90
22734;DHT22;11534;51.994;5.692;2023-06-26T03:58:39;21.90;99.90
22734;DHT22;11534;51.994;5.692;2023-06-26T04:01:05;21.90;99.90
22734;DHT22;11534;51.994;5.692;2023-06-26T04:03:30;21.90;99.90
22734;DHT22;11534;51.994;5.692;2023-06-26T04:05:57;22.00;99.90
22734;DHT22;11534;51.994;5.692;2023-06-26T04:08:23;22.00;99.90
22734;DHT22;11534;51.994;5.692;2023-06-26T04:10:50;22.00;99.90
22734;DHT22;11534;51.994;5.692;2023-06-26T04:13:17;22.00;99.90
22734;DHT22;11534;51.994;5.692;2023-06-26T04:15:44;22.00;99.90
22734;DHT22;11534;51.994;5.692;2023-06-26T04:18:09;22.00;99.90
22734;DHT22;11534;51.994;5.692;2023-06-26T04:20:41;22.00;99.90
22734;DHT22;11534;51.994;5.692;2023-06-26T04:23:06;22.00;99.90
22734;DHT22;11534;51.994;5.692;2023-06-26T04:25:32;22.00;99.90
22734;DHT22;11534;51.994;5.692;2023-06-26T04:27:57;22.00;99.90
22734;DHT22;11534;51.994;5.692;2023-06-26T04:30:23;21.90;99.90
22734;DHT22;11534;51.994;5.692;2023-06-26T04:32:49;21.90;99.90
22734;DHT22;11534;51.994;5.692;2023-06-26T04:35:14;21.90;99.90
22734;DHT22;11534;51.994;5.692;2023-06-26T04:37:40;21.90;99.90
22734;DHT22;11534;51.994;5.692;2023-06-26T04:40:06;21.80;99.90
22734;DHT22;11534;51.994;5.692;2023-06-26T04:42:35;21.80;99.90
22734;DHT22;11534;51.994;5.692;2023-06-26T04:45:00;21.80;99.90
22734;DHT22;11534;51.994;5.692;2023-06-26T04:47:27;21.80;99.90
22734;DHT22;11534;51.994;5.692;2023-06-26T04:49:53;21.80;99.90
22734;DHT22;11534;51.994;5.692;2023-06-26T04:52:20;21.70;99.90
22734;DHT22;11534;51.994;5.692;2023-06-26T04:54:46;21.70;99.90
22734;DHT22;11534;51.994;5.692;2023-06-26T04:57:11;21.70;99.90
22734;DHT22;11534;51.994;5.692;2023-06-26T04:59:38;21.70;99.90
22734;DHT22;11534;51.994;5.692;2023-06-26T05:02:04;21.70;99.90
22734;DHT22;11534;51.994;5.692;2023-06-26T05:04:30;21.80;99.90
22734;DHT22;11534;51.994;5.692;2023-06-26T05:06:57;21.70;99.90
22734;DHT22;11534;51.994;5.692;2023-06-26T05:09:22;21.80;99.90
22734;DHT22;11534;51.994;5.692;2023-06-26T05:11:48;21.80;99.90
22734;DHT22;11534;51.994;5.692;2023-06-26T05:14:14;21.70;99.90
22734;DHT22;11534;51.994;5.692;2023-06-26T05:16:39;21.80;99.90
22734;DHT22;11534;51.994;5.692;2023-06-26T05:19:05;21.80;99.90
22734;DHT22;11534;51.994;5.692;2023-06-26T05:21:31;21.80;99.90
22734;DHT22;11534;51.994;5.692;2023-06-26T05:23:57;21.80;99.90
22734;DHT22;11534;51.994;5.692;2023-06-26T05:26:24;21.80;99.90
22734;DHT22;11534;51.994;5.692;2023-06-26T05:28:50;21.80;99.90
22734;DHT22;11534;51.994;5.692;2023-06-26T05:31:16;21.80;99.90
22734;DHT22;11534;51.994;5.692;2023-06-26T05:33:43;21.80;99.90
22734;DHT22;11534;51.994;5.692;2023-06-26T05:36:12;21.70;99.90
22734;DHT22;11534;51.994;5.692;2023-06-26T05:38:38;21.80;99.90
22734;DHT22;11534;51.994;5.692;2023-06-26T05:41:04;21.80;99.90
22734;DHT22;11534;51.994;5.692;2023-06-26T05:43:30;21.80;99.90
22734;DHT22;11534;51.994;5.692;2023-06-26T05:45:56;21.80;99.90
22734;DHT22;11534;51.994;5.692;2023-06-26T05:48:23;21.80;99.90
22734;DHT22;11534;51.994;5.692;2023-06-26T05:50:49;21.80;99.90
22734;DHT22;11534;51.994;5.692;2023-06-26T05:53:15;21.80;99.90
22734;DHT22;11534;51.994;5.692;2023-06-26T05:55:41;21.70;99.90
22734;DHT22;11534;51.994;5.692;2023-06-26T05:58:11;21.60;99.90
22734;DHT22;11534;51.994;5.692;2023-06-26T06:00:41;21.60;99.90
22734;DHT22;11534;51.994;5.692;2023-06-26T06:03:09;21.50;99.90
22734;DHT22;11534;51.994;5.692;2023-06-26T06:05:38;21.60;99.90
22734;DHT22;11534;51.994;5.692;2023-06-26T06:08:05;21.60;99.90
22734;DHT22;11534;51.994;5.692;2023-06-26T06:10:31;21.70;99.90
22734;DHT22;11534;51.994;5.692;2023-06-26T06:12:57;21.70;99.90
22734;DHT22;11534;51.994;5.692;2023-06-26T06:15:24;21.80;99.90
22734;DHT22;11534;51.994;5.692;2023-06-26T06:17:51;21.70;99.90
22734;DHT22;11534;51.994;5.692;2023-06-26T06:20:17;21.70;99.90
22734;DHT22;11534;51.994;5.692;2023-06-26T06:22:45;21.70;99.90
22734;DHT22;11534;51.994;5.692;2023-06-26T06:25:11;21.80;99.90
22734;DHT22;11534;51.994;5.692;2023-06-26T06:27:36;21.90;99.90
22734;DHT22;11534;51.994;5.692;2023-06-26T06:30:02;22.10;99.90
22734;DHT22;11534;51.994;5.692;2023-06-26T06:32:28;22.10;99.90
22734;DHT22;11534;51.994;5.692;2023-06-26T06:34:53;22.00;99.90
22734;DHT22;11534;51.994;5.692;2023-06-26T06:37:19;22.00;99.90
22734;DHT22;11534;51.994;5.692;2023-06-26T06:39:45;22.10;99.90
22734;DHT22;11534;51.994;5.692;2023-06-26T06:42:10;22.10;99.90
22734;DHT22;11534;51.994;5.692;2023-06-26T06:44:36;22.20;99.90
22734;DHT22;11534;51.994;5.692;2023-06-26T06:47:02;22.30;99.90
22734;DHT22;11534;51.994;5.692;2023-06-26T06:49:28;22.40;99.90
22734;DHT22;11534;51.994;5.692;2023-06-26T06:51:53;22.30;99.90
22734;DHT22;11534;51.994;5.692;2023-06-26T06:54:19;22.30;99.90
22734;DHT22;11534;51.994;5.692;2023-06-26T06:56:45;22.30;99.90
22734;DHT22;11534;51.994;5.692;2023-06-26T06:59:10;22.30;99.90
22734;DHT22;11534;51.994;5.692;2023-06-26T07:01:36;22.30;99.90
22734;DHT22;11534;51.994;5.692;2023-06-26T07:04:02;22.30;99.90
22734;DHT22;11534;51.994;5.692;2023-06-26T07:06:29;22.30;99.90
22734;DHT22;11534;51.994;5.692;2023-06-26T07:08:55;22.30;99.90
22734;DHT22;11534;51.994;5.692;2023-06-26T07:11:20;22.40;99.90
22734;DHT22;11534;51.994;5.692;2023-06-26T07:13:46;22.50;99.90
22734;DHT22;11534;51.994;5.692;2023-06-26T07:16:12;22.60;99.90
22734;DHT22;11534;51.994;5.692;2023-06-26T07:18:38;22.70;99.90
22734;DHT22;11534;51.994;5.692;2023-06-26T07:21:04;22.80;99.90
22734;DHT22;11534;51.994;5.692;2023-06-26T07:23:30;22.90;99.90
22734;DHT22;11534;51.994;5.692;2023-06-26T07:25:56;23.00;99.90
22734;DHT22;11534;51.994;5.692;2023-06-26T07:28:21;23.10;99.90
22734;DHT22;11534;51.994;5.692;2023-06-26T07:30:47;23.10;99.90
22734;DHT22;11534;51.994;5.692;2023-06-26T07:33:12;23.10;99.90
22734;DHT22;11534;51.994;5.692;2023-06-26T07:35:38;23.10;99.90
22734;DHT22;11534;51.994;5.692;2023-06-26T07:38:04;23.20;99.90
22734;DHT22;11534;51.994;5.692;2023-06-26T07:40:29;23.10;99.90
22734;DHT22;11534;51.994;5.692;2023-06-26T07:42:55;23.10;99.90
22734;DHT22;11534;51.994;5.692;2023-06-26T07:45:23;23.20;99.90
22734;DHT22;11534;51.994;5.692;2023-06-26T07:47:49;23.50;99.90
22734;DHT22;11534;51.994;5.692;2023-06-26T07:50:15;23.50;99.90
22734;DHT22;11534;51.994;5.692;2023-06-26T07:52:46;23.50;99.90
22734;DHT22;11534;51.994;5.692;2023-06-26T07:55:12;23.30;99.90
22734;DHT22;11534;51.994;5.692;2023-06-26T07:57:38;23.20;99.90
22734;DHT22;11534;51.994;5.692;2023-06-26T08:00:04;23.40;99.90
22734;DHT22;11534;51.994;5.692;2023-06-26T08:02:32;23.70;99.90
22734;DHT22;11534;51.994;5.692;2023-06-26T08:04:57;24.00;99.90
22734;DHT22;11534;51.994;5.692;2023-06-26T08:07:23;24.20;99.90
22734;DHT22;11534;51.994;5.692;2023-06-26T08:09:49;24.20;99.90
22734;DHT22;11534;51.994;5.692;2023-06-26T08:12:14;24.00;99.90
22734;DHT22;11534;51.994;5.692;2023-06-26T08:14:41;23.80;99.90
22734;DHT22;11534;51.994;5.692;2023-06-26T08:17:06;23.80;99.90
22734;DHT22;11534;51.994;5.692;2023-06-26T08:19:32;23.80;99.90
22734;DHT22;11534;51.994;5.692;2023-06-26T08:21:57;23.90;99.90
22734;DHT22;11534;51.994;5.692;2023-06-26T08:24:23;23.80;99.90
22734;DHT22;11534;51.994;5.692;2023-06-26T08:26:49;23.80;99.90
22734;DHT22;11534;51.994;5.692;2023-06-26T08:29:15;23.80;99.90
22734;DHT22;11534;51.994;5.692;2023-06-26T08:31:41;23.80;99.90
22734;DHT22;11534;51.994;5.692;2023-06-26T08:34:08;23.80;99.90
22734;DHT22;11534;51.994;5.692;2023-06-26T08:36:34;23.80;99.90
22734;DHT22;11534;51.994;5.692;2023-06-26T08:39:00;23.90;99.90
22734;DHT22;11534;51.994;5.692;2023-06-26T08:41:25;23.80;99.90
22734;DHT22;11534;51.994;5.692;2023-06-26T08:43:51;23.80;99.90
22734;DHT22;11534;51.994;5.692;2023-06-26T08:46:18;23.80;99.90
22734;DHT22;11534;51.994;5.692;2023-06-26T08:49:14;23.90;99.90
22734;DHT22;11534;51.994;5.692;2023-06-26T08:51:42;23.80;99.90
22734;DHT22;11534;51.994;5.692;2023-06-26T08:54:12;24.00;99.90
22734;DHT22;11534;51.994;5.692;2023-06-26T08:56:43;24.00;99.90
22734;DHT22;11534;51.994;5.692;2023-06-26T08:59:10;23.80;99.90
22734;DHT22;11534;51.994;5.692;2023-06-26T09:01:36;23.80;99.90
22734;DHT22;11534;51.994;5.692;2023-06-26T09:04:02;23.80;99.90
22734;DHT22;11534;51.994;5.692;2023-06-26T09:06:28;23.70;99.90
22734;DHT22;11534;51.994;5.692;2023-06-26T09:08:55;23.60;99.90
22734;DHT22;11534;51.994;5.692;2023-06-26T09:11:20;23.60;99.90
22734;DHT22;11534;51.994;5.692;2023-06-26T09:13:46;23.60;99.90
22734;DHT22;11534;51.994;5.692;2023-06-26T09:16:13;23.60;99.90
22734;DHT22;11534;51.994;5.692;2023-06-26T09:18:40;23.70;99.90
22734;DHT22;11534;51.994;5.692;2023-06-26T09:21:10;23.50;99.90
22734;DHT22;11534;51.994;5.692;2023-06-26T09:23:36;23.60;99.90
22734;DHT22;11534;51.994;5.692;2023-06-26T09:26:06;23.60;99.90
22734;DHT22;11534;51.994;5.692;2023-06-26T09:28:35;23.60;99.90
22734;DHT22;11534;51.994;5.692;2023-06-26T09:31:05;23.70;99.90
22734;DHT22;11534;51.994;5.692;2023-06-26T09:33:38;23.80;99.90
22734;DHT22;11534;51.994;5.692;2023-06-26T09:36:07;23.80;99.90
22734;DHT22;11534;51.994;5.692;2023-06-26T09:38:35;24.00;99.90
22734;DHT22;11534;51.994;5.692;2023-06-26T09:41:02;24.20;99.90
22734;DHT22;11534;51.994;5.692;2023-06-26T09:43:28;24.20;99.90
22734;DHT22;11534;51.994;5.692;2023-06-26T09:45:53;24.00;99.90
22734;DHT22;11534;51.994;5.692;2023-06-26T09:48:20;23.80;99.90
22734;DHT22;11534;51.994;5.692;2023-06-26T09:50:46;23.70;99.90
22734;DHT22;11534;51.994;5.692;2023-06-26T09:53:13;23.70;99.90
22734;DHT22;11534;51.994;5.692;2023-06-26T09:55:40;24.00;99.90
22734;DHT22;11534;51.994;5.692;2023-06-26T09:58:11;23.90;99.90
22734;DHT22;11534;51.994;5.692;2023-06-26T10:00:43;24.00;99.90
22734;DHT22;11534;51.994;5.692;2023-06-26T10:03:11;24.20;99.90
22734;DHT22;11534;51.994;5.692;2023-06-26T10:05:38;24.20;99.90
22734;DHT22;11534;51.994;5.692;2023-06-26T10:08:05;24.50;99.90
22734;DHT22;11534;51.994;5.692;2023-06-26T10:10:34;24.60;99.90
22734;DHT22;11534;51.994;5.692;2023-06-26T10:13:07;24.70;99.90
22734;DHT22;11534;51.994;5.692;2023-06-26T10:15:34;25.20;99.90
22734;DHT22;11534;51.994;5.692;2023-06-26T10:18:01;25.30;99.90
22734;DHT22;11534;51.994;5.692;2023-06-26T10:20:27;25.60;99.90
22734;DHT22;11534;51.994;5.692;2023-06-26T10:22:53;25.50;99.90
22734;DHT22;11534;51.994;5.692;2023-06-26T10:25:21;25.80;99.90
22734;DHT22;11534;51.994;5.692;2023-06-26T10:27:57;26.20;99.90
22734;DHT22;11534;51.994;5.692;2023-06-26T10:30:30;26.40;99.90
22734;DHT22;11534;51.994;5.692;2023-06-26T10:32:57;26.90;99.90
22734;DHT22;11534;51.994;5.692;2023-06-26T10:35:25;27.30;99.90
22734;DHT22;11534;51.994;5.692;2023-06-26T10:38:00;27.00;99.90
22734;DHT22;11534;51.994;5.692;2023-06-26T10:40:30;26.80;99.90
22734;DHT22;11534;51.994;5.692;2023-06-26T10:43:08;26.20;99.90
22734;DHT22;11534;51.994;5.692;2023-06-26T10:45:35;26.30;99.90
22734;DHT22;11534;51.994;5.692;2023-06-26T10:48:02;26.70;99.90
22734;DHT22;11534;51.994;5.692;2023-06-26T10:50:31;26.80;99.90
22734;DHT22;11534;51.994;5.692;2023-06-26T10:53:22;26.30;99.90
22734;DHT22;11534;51.994;5.692;2023-06-26T10:55:59;26.40;99.90
22734;DHT22;11534;51.994;5.692;2023-06-26T11:04:06;27.70;99.90
22734;DHT22;11534;51.994;5.692;2023-06-26T11:06:34;27.60;99.90
22734;DHT22;11534;51.994;5.692;2023-06-26T11:14:20;28.00;99.90
22734;DHT22;11534;51.994;5.692;2023-06-26T11:16:46;28.00;99.90
22734;DHT22;11534;51.994;5.692;2023-06-26T11:19:13;28.10;99.90
22734;DHT22;11534;51.994;5.692;2023-06-26T11:21:40;28.30;99.90
22734;DHT22;11534;51.994;5.692;2023-06-26T11:24:11;28.10;99.90
22734;DHT22;11534;51.994;5.692;2023-06-26T11:26:41;27.60;99.90
22734;DHT22;11534;51.994;5.692;2023-06-26T11:29:07;27.30;99.90
22734;DHT22;11534;51.994;5.692;2023-06-26T11:31:40;27.10;99.90
22734;DHT22;11534;51.994;5.692;2023-06-26T11:34:10;27.10;99.90
22734;DHT22;11534;51.994;5.692;2023-06-26T11:36:38;27.50;99.90
22734;DHT22;11534;51.994;5.692;2023-06-26T11:39:06;27.90;99.90
22734;DHT22;11534;51.994;5.692;2023-06-26T11:41:33;28.40;99.90
22734;DHT22;11534;51.994;5.692;2023-06-26T11:46:28;28.60;99.90
22734;DHT22;11534;51.994;5.692;2023-06-26T11:48:54;28.30;99.90
22734;DHT22;11534;51.994;5.692;2023-06-26T11:51:20;28.30;99.90
22734;DHT22;11534;51.994;5.692;2023-06-26T11:53:47;28.50;99.90
22734;DHT22;11534;51.994;5.692;2023-06-26T11:56:14;28.60;99.90
22734;DHT22;11534;51.994;5.692;2023-06-26T11:59:00;28.30;99.90
22734;DHT22;11534;51.994;5.692;2023-06-26T12:01:37;28.20;99.90
22734;DHT22;11534;51.994;5.692;2023-06-26T12:04:04;28.50;99.90
22734;DHT22;11534;51.994;5.692;2023-06-26T12:06:45;28.80;99.90
22734;DHT22;11534;51.994;5.692;2023-06-26T12:09:11;29.30;99.90
22734;DHT22;11534;51.994;5.692;2023-06-26T12:11:40;28.90;99.90
22734;DHT22;11534;51.994;5.692;2023-06-26T12:14:07;28.60;99.90
22734;DHT22;11534;51.994;5.692;2023-06-26T12:16:34;28.20;99.90
22734;DHT22;11534;51.994;5.692;2023-06-26T12:19:01;28.20;99.90
22734;DHT22;11534;51.994;5.692;2023-06-26T12:21:44;28.00;99.70
22734;DHT22;11534;51.994;5.692;2023-06-26T12:24:16;28.30;99.90
22734;DHT22;11534;51.994;5.692;2023-06-26T12:26:44;28.30;99.90
22734;DHT22;11534;51.994;5.692;2023-06-26T12:29:18;28.60;99.90
22734;DHT22;11534;51.994;5.692;2023-06-26T12:31:51;28.50;99.90
22734;DHT22;11534;51.994;5.692;2023-06-26T12:34:20;28.80;99.90
22734;DHT22;11534;51.994;5.692;2023-06-26T12:36:47;29.20;99.90
22734;DHT22;11534;51.994;5.692;2023-06-26T12:39:19;29.40;99.90
22734;DHT22;11534;51.994;5.692;2023-06-26T12:41:52;29.70;99.90
22734;DHT22;11534;51.994;5.692;2023-06-26T12:44:19;29.90;99.00
22734;DHT22;11534;51.994;5.692;2023-06-26T12:46:58;29.70;98.60
22734;DHT22;11534;51.994;5.692;2023-06-26T12:49:37;29.30;97.70
22734;DHT22;11534;51.994;5.692;2023-06-26T12:52:06;29.40;96.90
22734;DHT22;11534;51.994;5.692;2023-06-26T12:54:33;29.60;97.60
22734;DHT22;11534;51.994;5.692;2023-06-26T12:56:59;29.40;97.10
22734;DHT22;11534;51.994;5.692;2023-06-26T12:59:26;28.90;98.20
22734;DHT22;11534;51.994;5.692;2023-06-26T13:01:51;29.10;98.20
22734;DHT22;11534;51.994;5.692;2023-06-26T13:04:17;28.90;97.20
22734;DHT22;11534;51.994;5.692;2023-06-26T13:06:43;28.30;97.40
22734;DHT22;11534;51.994;5.692;2023-06-26T13:09:09;28.10;97.40
22734;DHT22;11534;51.994;5.692;2023-06-26T13:11:36;28.10;98.30
22734;DHT22;11534;51.994;5.692;2023-06-26T13:14:02;28.10;97.90
22734;DHT22;11534;51.994;5.692;2023-06-26T13:16:28;28.00;99.20
22734;DHT22;11534;51.994;5.692;2023-06-26T13:18:55;28.60;98.40
22734;DHT22;11534;51.994;5.692;2023-06-26T13:21:21;29.10;97.30
22734;DHT22;11534;51.994;5.692;2023-06-26T13:23:47;29.60;97.50
22734;DHT22;11534;51.994;5.692;2023-06-26T13:26:13;29.50;96.90
22734;DHT22;11534;51.994;5.692;2023-06-26T13:28:39;29.70;97.60
22734;DHT22;11534;51.994;5.692;2023-06-26T13:31:05;29.50;95.80
22734;DHT22;11534;51.994;5.692;2023-06-26T13:33:31;29.00;95.60
22734;DHT22;11534;51.994;5.692;2023-06-26T13:35:58;29.10;96.50
22734;DHT22;11534;51.994;5.692;2023-06-26T13:38:25;29.00;95.70
22734;DHT22;11534;51.994;5.692;2023-06-26T13:40:53;28.70;96.10
22734;DHT22;11534;51.994;5.692;2023-06-26T13:43:20;28.80;96.50
22734;DHT22;11534;51.994;5.692;2023-06-26T13:45:48;28.30;96.60
22734;DHT22;11534;51.994;5.692;2023-06-26T13:48:14;27.70;96.80
22734;DHT22;11534;51.994;5.692;2023-06-26T13:50:40;27.30;97.00
22734;DHT22;11534;51.994;5.692;2023-06-26T13:53:06;27.00;97.40
22734;DHT22;11534;51.994;5.692;2023-06-26T13:55:32;27.40;97.60
22734;DHT22;11534;51.994;5.692;2023-06-26T13:57:59;28.00;97.80
22734;DHT22;11534;51.994;5.692;2023-06-26T14:00:24;28.70;96.50
22734;DHT22;11534;51.994;5.692;2023-06-26T14:02:51;29.10;97.70
22734;DHT22;11534;51.994;5.692;2023-06-26T14:05:17;29.20;96.80
22734;DHT22;11534;51.994;5.692;2023-06-26T14:07:46;29.60;96.30
22734;DHT22;11534;51.994;5.692;2023-06-26T14:10:13;29.80;96.20
22734;DHT22;11534;51.994;5.692;2023-06-26T14:12:40;29.90;96.00
22734;DHT22;11534;51.994;5.692;2023-06-26T14:15:06;29.80;95.70
22734;DHT22;11534;51.994;5.692;2023-06-26T14:17:33;29.60;95.20
22734;DHT22;11534;51.994;5.692;2023-06-26T14:20:00;29.40;94.80
22734;DHT22;11534;51.994;5.692;2023-06-26T14:22:26;29.30;95.90
22734;DHT22;11534;51.994;5.692;2023-06-26T14:24:52;29.50;95.30
22734;DHT22;11534;51.994;5.692;2023-06-26T14:27:19;29.50;96.20
22734;DHT22;11534;51.994;5.692;2023-06-26T14:29:45;29.10;97.60
22734;DHT22;11534;51.994;5.692;2023-06-26T14:32:13;28.70;96.20
22734;DHT22;11534;51.994;5.692;2023-06-26T14:34:39;28.60;96.40
22734;DHT22;11534;51.994;5.692;2023-06-26T14:37:05;28.60;98.50
22734;DHT22;11534;51.994;5.692;2023-06-26T14:39:31;28.70;97.00
22734;DHT22;11534;51.994;5.692;2023-06-26T14:41:57;28.60;96.50
22734;DHT22;11534;51.994;5.692;2023-06-26T14:44:22;28.30;95.70
22734;DHT22;11534;51.994;5.692;2023-06-26T14:46:48;28.20;97.30
22734;DHT22;11534;51.994;5.692;2023-06-26T14:49:13;28.10;98.10
22734;DHT22;11534;51.994;5.692;2023-06-26T14:51:39;28.10;97.50
22734;DHT22;11534;51.994;5.692;2023-06-26T14:54:06;28.10;96.60
22734;DHT22;11534;51.994;5.692;2023-06-26T14:56:32;27.90;98.40
22734;DHT22;11534;51.994;5.692;2023-06-26T14:58:57;27.90;97.40
22734;DHT22;11534;51.994;5.692;2023-06-26T15:01:23;27.90;98.60
22734;DHT22;11534;51.994;5.692;2023-06-26T15:03:49;28.10;96.90
22734;DHT22;11534;51.994;5.692;2023-06-26T15:06:15;28.10;98.60
22734;DHT22;11534;51.994;5.692;2023-06-26T15:08:40;27.90;96.70
22734;DHT22;11534;51.994;5.692;2023-06-26T15:11:06;27.90;97.70
22734;DHT22;11534;51.994;5.692;2023-06-26T15:13:32;27.90;96.40
22734;DHT22;11534;51.994;5.692;2023-06-26T15:15:57;27.90;97.30
22734;DHT22;11534;51.994;5.692;2023-06-26T15:18:23;27.70;98.50
22734;DHT22;11534;51.994;5.692;2023-06-26T15:20:48;27.40;96.80
22734;DHT22;11534;51.994;5.692;2023-06-26T15:23:14;27.10;96.90
22734;DHT22;11534;51.994;5.692;2023-06-26T15:25:40;26.70;98.30
22734;DHT22;11534;51.994;5.692;2023-06-26T15:28:06;26.60;97.40
22734;DHT22;11534;51.994;5.692;2023-06-26T15:30:32;26.30;98.10
22734;DHT22;11534;51.994;5.692;2023-06-26T15:32:58;26.20;97.20
22734;DHT22;11534;51.994;5.692;2023-06-26T15:35:24;26.10;97.90
22734;DHT22;11534;51.994;5.692;2023-06-26T15:37:49;26.10;97.30
22734;DHT22;11534;51.994;5.692;2023-06-26T15:40:15;26.10;97.20
22734;DHT22;11534;51.994;5.692;2023-06-26T15:42:49;26.20;98.00
22734;DHT22;11534;51.994;5.692;2023-06-26T15:45:15;26.40;98.40